Time;durP1;ratioP1;P1;durP2;ratioP2;P2;SDS_P1;SDS_P2;PMS_P1;PMS_P2;Temp;Humidity;BMP_temperature;BMP_pressure;BME280_temperature;BME280_humidity;BME280_pressure;Samples;Min_cycle;Max_cycle;Signal;HPM_P1;HPM_P2
2021/06/30 00:01:43;;;;;;;12.37;7.20;;;15.30;99.90;;;;;;4955779;29;20301;-77
2021/06/30 00:04:10;;;;;;;13.13;7.10;;;15.30;99.90;;;;;;4954470;29;20286;-78
2021/06/30 00:06:38;;;;;;;12.70;7.33;;;15.30;99.90;;;;;;4948654;29;20235;-77
2021/06/30 00:09:06;;;;;;;12.23;7.73;;;15.30;99.90;;;;;;4941939;29;20262;-77
2021/06/30 00:11:32;;;;;;;14.07;8.50;;;15.30;99.90;;;;;;4952490;29;20235;-77
2021/06/30 00:13:59;;;;;;;14.13;8.57;;;15.30;99.90;;;;;;4940089;29;20312;-77
2021/06/30 00:16:31;;;;;;;14.80;7.97;;;15.30;99.90;;;;;;4950683;29;20673;-77
2021/06/30 00:19:00;;;;;;;15.60;8.83;;;15.30;99.90;;;;;;4946769;29;20286;-77
2021/06/30 00:21:27;;;;;;;14.90;8.60;;;15.40;99.90;;;;;;4943501;29;20259;-77
2021/06/30 00:23:55;;;;;;;20.40;10.87;;;15.30;99.90;;;;;;4951556;29;20318;-77
2021/06/30 00:26:22;;;;;;;18.83;9.80;;;15.40;99.90;;;;;;4937606;29;20242;-78
2021/06/30 00:28:49;;;;;;;19.70;10.30;;;15.40;99.90;;;;;;4940862;29;20261;-77
2021/06/30 00:31:17;;;;;;;18.27;9.30;;;15.30;99.90;;;;;;4946602;29;20234;-77
2021/06/30 00:33:44;;;;;;;15.03;8.70;;;15.30;99.90;;;;;;4952210;29;20274;-77
2021/06/30 00:36:13;;;;;;;18.20;9.37;;;15.30;99.90;;;;;;4953223;29;20671;-77
2021/06/30 00:38:41;;;;;;;19.50;9.80;;;15.30;99.90;;;;;;4943468;28;20253;-77
2021/06/30 00:41:08;;;;;;;17.73;9.77;;;15.30;99.90;;;;;;4955391;29;20733;-77
2021/06/30 00:43:35;;;;;;;16.73;9.77;;;15.40;99.90;;;;;;4942586;29;20577;-77
2021/06/30 00:46:02;;;;;;;18.80;9.43;;;15.40;99.90;;;;;;4945615;29;20200;-77
2021/06/30 00:48:29;;;;;;;22.87;10.90;;;15.40;99.90;;;;;;4954063;29;20311;-77
2021/06/30 00:50:56;;;;;;;19.90;10.20;;;15.40;99.90;;;;;;4946314;29;20712;-77
2021/06/30 00:53:25;;;;;;;19.47;10.43;;;15.40;99.90;;;;;;4945334;29;20243;-77
2021/06/30 00:55:52;;;;;;;24.60;11.20;;;15.40;99.90;;;;;;4954961;29;20266;-77
2021/06/30 00:58:19;;;;;;;25.13;11.03;;;15.40;99.90;;;;;;4944423;29;20255;-77
2021/06/30 01:00:50;;;;;;;26.43;11.20;;;15.40;99.90;;;;;;4950638;29;20241;-77
2021/06/30 01:03:17;;;;;;;26.40;12.17;;;15.40;99.90;;;;;;4948172;29;20583;-77
2021/06/30 01:05:44;;;;;;;24.03;12.33;;;15.40;99.90;;;;;;4944358;29;20235;-77
2021/06/30 01:08:11;;;;;;;26.67;12.93;;;15.50;99.90;;;;;;4944905;29;20282;-77
2021/06/30 01:10:39;;;;;;;28.50;13.60;;;15.40;99.90;;;;;;4950896;29;20206;-77
2021/06/30 01:13:07;;;;;;;32.07;13.60;;;15.40;99.90;;;;;;4944814;29;20230;-77
2021/06/30 01:15:46;;;;;;;32.27;13.80;;;15.40;99.90;;;;;;4945466;29;20645;-77
2021/06/30 01:18:13;;;;;;;28.60;13.27;;;15.40;99.90;;;;;;4953683;29;20211;-77
2021/06/30 01:20:40;;;;;;;35.83;14.40;;;15.40;99.90;;;;;;4955537;28;20661;-77
2021/06/30 01:23:10;;;;;;;37.40;15.07;;;15.40;99.90;;;;;;4955540;29;20266;-77
2021/06/30 01:25:37;;;;;;;34.57;14.83;;;15.40;99.90;;;;;;4953694;29;20203;-77
2021/06/30 01:28:04;;;;;;;36.13;14.30;;;15.50;99.90;;;;;;4955350;29;20203;-77
2021/06/30 01:30:31;;;;;;;31.73;13.47;;;15.50;99.90;;;;;;4945291;29;20293;-77
2021/06/30 01:32:58;;;;;;;35.63;14.80;;;15.40;99.90;;;;;;4940170;29;20231;-77
2021/06/30 01:35:25;;;;;;;34.93;14.57;;;15.50;99.90;;;;;;4935860;29;20760;-77
2021/06/30 01:37:53;;;;;;;35.97;15.20;;;15.50;99.90;;;;;;4947557;29;20207;-77
2021/06/30 01:40:22;;;;;;;36.50;14.70;;;15.50;99.90;;;;;;4955036;29;20211;-77
2021/06/30 01:42:51;;;;;;;36.70;13.87;;;15.50;99.90;;;;;;4954579;29;20242;-76
2021/06/30 01:45:18;;;;;;;37.97;15.33;;;15.50;99.90;;;;;;4955034;29;20290;-77
2021/06/30 01:47:45;;;;;;;39.90;15.43;;;15.50;99.90;;;;;;4953144;29;20286;-77
2021/06/30 01:50:13;;;;;;;34.97;14.13;;;15.50;99.90;;;;;;4954262;29;20314;-77
2021/06/30 01:52:41;;;;;;;38.73;14.77;;;15.50;99.90;;;;;;4955156;29;20214;-77
2021/06/30 01:55:12;;;;;;;35.93;14.00;;;15.50;99.90;;;;;;4948765;29;20625;-77
2021/06/30 01:57:42;;;;;;;36.40;13.47;;;15.40;99.90;;;;;;4950771;29;20289;-77
2021/06/30 02:00:11;;;;;;;32.23;14.03;;;15.50;99.90;;;;;;4941397;29;20199;-77
2021/06/30 02:02:38;;;;;;;37.67;14.63;;;15.50;99.90;;;;;;4944190;29;20556;-77
2021/06/30 02:05:09;;;;;;;37.80;14.43;;;15.50;99.90;;;;;;4943101;29;20649;-77
2021/06/30 02:07:36;;;;;;;33.23;13.47;;;15.50;99.90;;;;;;4951324;29;20214;-77
2021/06/30 02:10:05;;;;;;;29.90;13.03;;;15.40;99.90;;;;;;4952237;28;20250;-77
2021/06/30 02:12:32;;;;;;;29.03;12.83;;;15.40;99.90;;;;;;4947747;29;20241;-77
2021/06/30 02:15:01;;;;;;;32.20;12.63;;;15.40;99.90;;;;;;4953668;29;20286;-77
2021/06/30 02:17:27;;;;;;;31.30;13.30;;;15.40;99.90;;;;;;4952239;29;20234;-78
2021/06/30 02:19:54;;;;;;;30.77;12.87;;;15.40;99.90;;;;;;4953600;29;20712;-77
2021/06/30 02:22:21;;;;;;;32.90;13.30;;;15.40;99.90;;;;;;4954134;29;20274;-77
2021/06/30 02:24:48;;;;;;;32.63;13.10;;;15.40;99.90;;;;;;4953773;29;20253;-78
2021/06/30 02:27:15;;;;;;;34.30;13.77;;;15.40;99.90;;;;;;4953892;29;20199;-77
2021/06/30 02:29:42;;;;;;;33.33;13.33;;;15.40;99.90;;;;;;4951906;29;20310;-77
2021/06/30 02:32:11;;;;;;;34.47;13.20;;;15.40;99.90;;;;;;4947229;29;20285;-77
2021/06/30 02:34:38;;;;;;;31.40;12.37;;;15.40;99.90;;;;;;4936709;29;20658;-78
2021/06/30 02:37:05;;;;;;;34.70;12.90;;;15.40;99.90;;;;;;4949686;29;20227;-77
2021/06/30 02:39:32;;;;;;;31.23;13.33;;;15.40;99.90;;;;;;4947150;28;20247;-77
2021/06/30 02:42:07;;;;;;;37.73;14.03;;;15.40;99.90;;;;;;5126516;27;20534;-77
2021/06/30 02:44:34;;;;;;;37.33;15.30;;;15.50;99.90;;;;;;5116555;28;20197;-77
2021/06/30 02:47:01;;;;;;;42.63;16.83;;;15.40;99.90;;;;;;5118992;28;20193;-77
2021/06/30 02:49:28;;;;;;;40.93;16.30;;;15.50;99.90;;;;;;5109943;28;20284;-77
2021/06/30 02:51:55;;;;;;;44.80;18.43;;;15.50;99.90;;;;;;5125658;28;20280;-78
2021/06/30 02:54:22;;;;;;;45.63;17.80;;;15.50;99.90;;;;;;5118116;28;20228;-78
2021/06/30 02:56:49;;;;;;;42.97;18.00;;;15.50;99.90;;;;;;5121245;28;20229;-78
2021/06/30 02:59:17;;;;;;;45.37;18.10;;;15.50;99.90;;;;;;5110015;28;20590;-77
2021/06/30 03:01:44;;;;;;;46.03;19.07;;;15.50;99.90;;;;;;5125435;28;20348;-77
2021/06/30 03:04:11;;;;;;;45.03;17.97;;;15.50;99.90;;;;;;5111042;28;20234;-77
2021/06/30 03:06:37;;;;;;;44.93;18.60;;;15.50;99.90;;;;;;5123339;28;20276;-77
2021/06/30 03:09:04;;;;;;;42.73;18.03;;;15.50;99.90;;;;;;5118689;28;20232;-77
2021/06/30 03:11:31;;;;;;;43.60;18.63;;;15.50;99.90;;;;;;5115657;27;20233;-78
2021/06/30 03:13:58;;;;;;;45.47;19.13;;;15.50;99.90;;;;;;5125145;28;20714;-77
2021/06/30 03:16:26;;;;;;;41.93;18.60;;;15.60;99.90;;;;;;5112971;28;20668;-77
2021/06/30 03:18:53;;;;;;;47.83;19.57;;;15.60;99.90;;;;;;5127263;28;20301;-77
2021/06/30 03:21:20;;;;;;;44.77;19.10;;;15.60;99.90;;;;;;5110041;28;20249;-77
2021/06/30 03:23:47;;;;;;;45.53;19.73;;;15.50;99.90;;;;;;5103317;28;20697;-77
2021/06/30 03:26:14;;;;;;;43.87;18.83;;;15.60;99.90;;;;;;5091411;28;20315;-77
2021/06/30 03:28:41;;;;;;;47.67;19.70;;;15.50;99.90;;;;;;5104605;28;20281;-77
2021/06/30 03:31:08;;;;;;;41.73;19.53;;;15.50;99.90;;;;;;5096695;28;20222;-77
2021/06/30 03:33:36;;;;;;;48.87;20.30;;;15.60;99.90;;;;;;5095249;28;20286;-77
2021/06/30 03:36:05;;;;;;;43.97;20.50;;;15.50;99.90;;;;;;5103994;28;20202;-77
2021/06/30 03:38:32;;;;;;;44.60;19.97;;;15.50;99.90;;;;;;5099799;28;20285;-77
2021/06/30 03:40:59;;;;;;;47.93;20.83;;;15.50;99.90;;;;;;5094629;28;20316;-77
2021/06/30 03:43:26;;;;;;;43.33;19.80;;;15.50;99.90;;;;;;5098616;28;20649;-77
2021/06/30 03:45:53;;;;;;;48.90;20.67;;;15.50;99.90;;;;;;5096610;28;20281;-77
2021/06/30 03:48:20;;;;;;;44.97;21.10;;;15.50;99.90;;;;;;5093912;28;20883;-77
2021/06/30 03:50:48;;;;;;;48.83;20.37;;;15.50;99.90;;;;;;5090819;28;20391;-77
2021/06/30 03:53:15;;;;;;;47.73;21.03;;;15.50;99.90;;;;;;5095349;28;20289;-77
2021/06/30 03:55:42;;;;;;;45.03;19.97;;;15.50;99.90;;;;;;5094269;28;20234;-77
2021/06/30 03:58:09;;;;;;;46.73;20.90;;;15.60;99.90;;;;;;5093370;28;20231;-77
2021/06/30 04:00:36;;;;;;;48.17;19.67;;;15.50;99.90;;;;;;5094298;28;20257;-77
2021/06/30 04:03:03;;;;;;;48.73;20.30;;;15.60;99.90;;;;;;5090526;28;20248;-77
2021/06/30 04:05:30;;;;;;;47.53;20.53;;;15.60;99.90;;;;;;5093998;28;20238;-77
2021/06/30 04:07:58;;;;;;;49.17;21.20;;;15.60;99.90;;;;;;5094689;28;20206;-77
2021/06/30 04:10:25;;;;;;;46.17;21.00;;;15.60;99.90;;;;;;5094640;28;20249;-77
2021/06/30 04:12:52;;;;;;;50.10;22.33;;;15.60;99.90;;;;;;5094166;28;20229;-77
2021/06/30 04:15:19;;;;;;;48.20;21.27;;;15.50;99.90;;;;;;5092577;28;20226;-77
2021/06/30 04:17:46;;;;;;;48.53;21.03;;;15.50;99.90;;;;;;5077852;28;20229;-77
2021/06/30 04:20:13;;;;;;;47.37;20.93;;;15.50;99.90;;;;;;5087292;28;20230;-77
2021/06/30 04:22:40;;;;;;;47.17;21.10;;;15.60;99.90;;;;;;5083838;28;20301;-77
2021/06/30 04:25:10;;;;;;;53.07;21.90;;;15.60;99.90;;;;;;5092082;28;20280;-77
2021/06/30 04:27:37;;;;;;;49.30;21.93;;;15.50;99.90;;;;;;5089676;28;20285;-78
2021/06/30 04:30:07;;;;;;;50.83;22.07;;;15.50;99.90;;;;;;5087404;28;20282;-77
2021/06/30 04:32:34;;;;;;;45.97;22.13;;;15.50;99.90;;;;;;5086749;28;20210;-77
2021/06/30 04:35:00;;;;;;;44.43;21.27;;;15.50;99.90;;;;;;5073961;28;20741;-77
2021/06/30 04:37:27;;;;;;;47.40;22.07;;;15.50;99.90;;;;;;5089654;28;20264;-78
2021/06/30 04:39:54;;;;;;;45.93;21.53;;;15.40;99.90;;;;;;5077469;28;20242;-77
2021/06/30 04:42:23;;;;;;;45.70;21.73;;;15.50;99.90;;;;;;5074066;28;20317;-77
2021/06/30 04:44:49;;;;;;;43.63;20.87;;;15.40;99.90;;;;;;5073574;28;20237;-77
2021/06/30 04:47:16;;;;;;;47.23;21.33;;;15.50;99.90;;;;;;5080119;28;20551;-77
2021/06/30 04:49:43;;;;;;;44.80;22.20;;;15.50;99.90;;;;;;5083386;28;20282;-75
2021/06/30 04:52:10;;;;;;;48.03;21.83;;;15.50;99.90;;;;;;5084678;28;20286;-77
2021/06/30 04:54:37;;;;;;;45.50;21.83;;;15.50;99.90;;;;;;5083958;28;20229;-77
2021/06/30 04:57:04;;;;;;;44.77;21.20;;;15.50;99.90;;;;;;5073539;28;20230;-77
2021/06/30 04:59:33;;;;;;;49.10;22.50;;;15.60;99.90;;;;;;5081719;28;20234;-77
2021/06/30 05:02:00;;;;;;;44.60;21.67;;;15.60;99.90;;;;;;5080921;28;20310;-77
2021/06/30 05:04:27;;;;;;;40.97;21.00;;;15.60;99.90;;;;;;5080506;28;20218;-77
2021/06/30 05:06:53;;;;;;;41.07;20.77;;;15.60;99.90;;;;;;5088733;28;20226;-77
2021/06/30 05:09:21;;;;;;;43.60;21.10;;;15.70;99.90;;;;;;5080587;28;20199;-77
2021/06/30 05:11:48;;;;;;;41.07;22.40;;;15.60;99.90;;;;;;5089131;28;20282;-77
2021/06/30 05:14:14;;;;;;;39.13;21.13;;;15.70;99.90;;;;;;5076779;28;20226;-77
2021/06/30 05:16:43;;;;;;;41.67;20.97;;;15.70;99.90;;;;;;5085735;28;20238;-78
2021/06/30 05:19:10;;;;;;;39.00;20.33;;;15.70;99.90;;;;;;5074467;28;20705;-77
2021/06/30 05:21:36;;;;;;;41.37;20.67;;;15.70;99.90;;;;;;5077014;28;20223;-77
2021/06/30 05:24:04;;;;;;;38.40;19.83;;;15.70;99.90;;;;;;5075824;28;20286;-78
2021/06/30 05:26:31;;;;;;;42.17;20.97;;;15.70;99.90;;;;;;5087796;28;20226;-78
2021/06/30 05:28:58;;;;;;;42.17;19.97;;;15.70;99.90;;;;;;5085023;28;20260;-79
2021/06/30 05:31:24;;;;;;;40.90;20.10;;;15.70;99.90;;;;;;5092301;28;20287;-79
2021/06/30 05:33:53;;;;;;;39.23;19.77;;;15.80;99.90;;;;;;5075783;28;20721;-78
2021/06/30 05:36:20;;;;;;;34.17;19.20;;;15.80;99.90;;;;;;5077408;28;20286;-77
2021/06/30 05:38:46;;;;;;;36.60;20.10;;;15.90;99.90;;;;;;5077867;28;20611;-77
2021/06/30 05:41:14;;;;;;;36.50;19.37;;;15.90;99.90;;;;;;5082713;28;20313;-78
2021/06/30 05:43:40;;;;;;;37.93;20.80;;;15.90;99.90;;;;;;5069829;28;20200;-78
2021/06/30 05:46:07;;;;;;;38.33;19.93;;;15.90;99.90;;;;;;5088886;28;20226;-77
2021/06/30 05:48:34;;;;;;;36.17;19.53;;;15.90;99.90;;;;;;5075163;28;20249;-77
2021/06/30 05:51:03;;;;;;;35.53;19.40;;;15.90;99.90;;;;;;5084268;28;20195;-77
2021/06/30 05:53:30;;;;;;;31.67;18.23;;;15.90;99.90;;;;;;5071050;28;20318;-77
2021/06/30 05:55:56;;;;;;;32.23;18.97;;;15.90;99.90;;;;;;5072695;28;20293;-77
2021/06/30 05:58:23;;;;;;;34.17;18.70;;;16.00;99.90;;;;;;5074874;28;20233;-77
2021/06/30 06:00:50;;;;;;;37.03;19.10;;;16.10;99.90;;;;;;5080431;28;20253;-78
2021/06/30 06:03:17;;;;;;;31.90;18.30;;;16.10;99.90;;;;;;5079709;28;20195;-77
2021/06/30 06:05:44;;;;;;;34.20;18.93;;;16.20;99.90;;;;;;5075510;28;20678;-77
2021/06/30 06:08:12;;;;;;;34.77;19.23;;;16.40;99.90;;;;;;5085225;28;20230;-78
2021/06/30 06:10:39;;;;;;;30.40;17.80;;;16.60;99.90;;;;;;5081267;28;20234;-78
2021/06/30 06:13:06;;;;;;;30.23;18.23;;;16.70;99.90;;;;;;5078253;28;20245;-78
2021/06/30 06:15:34;;;;;;;30.07;17.83;;;16.80;99.90;;;;;;5082307;28;20230;-78
2021/06/30 06:18:01;;;;;;;28.50;17.80;;;16.90;99.90;;;;;;5075658;28;20214;-78
2021/06/30 06:20:28;;;;;;;31.37;17.57;;;16.90;99.90;;;;;;5081285;28;20277;-78
2021/06/30 06:22:55;;;;;;;27.80;17.40;;;16.90;99.90;;;;;;5075406;28;20729;-78
2021/06/30 06:25:23;;;;;;;30.30;17.67;;;16.80;99.90;;;;;;5081313;28;20202;-78
2021/06/30 06:27:50;;;;;;;29.87;18.27;;;16.80;99.90;;;;;;5087815;28;20285;-78
2021/06/30 06:30:18;;;;;;;26.53;17.33;;;16.90;99.90;;;;;;5074213;28;20199;-79
2021/06/30 06:32:45;;;;;;;29.33;17.57;;;17.00;99.90;;;;;;5088051;28;20248;-79
2021/06/30 06:35:12;;;;;;;30.33;18.50;;;16.70;99.90;;;;;;5081044;28;20278;-78
2021/06/30 06:37:39;;;;;;;27.13;17.60;;;16.70;99.90;;;;;;5084177;28;20283;-78
2021/06/30 06:40:09;;;;;;;28.03;17.63;;;16.80;99.90;;;;;;5082185;28;20667;-78
2021/06/30 06:42:39;;;;;;;28.83;18.60;;;16.90;99.90;;;;;;5081653;28;20248;-79
2021/06/30 06:45:08;;;;;;;28.90;18.43;;;17.00;99.90;;;;;;5077274;28;20279;-79
2021/06/30 06:47:37;;;;;;;29.10;18.03;;;17.00;99.90;;;;;;5083285;28;20230;-78
2021/06/30 06:50:05;;;;;;;31.87;19.47;;;17.00;99.90;;;;;;5076629;28;20650;-78
2021/06/30 06:52:32;;;;;;;29.80;19.20;;;17.00;99.90;;;;;;5071299;28;20275;-78
2021/06/30 06:54:59;;;;;;;27.97;19.07;;;17.00;99.90;;;;;;5072361;28;20195;-78
2021/06/30 06:57:26;;;;;;;28.97;17.77;;;17.00;99.90;;;;;;5071150;28;20667;-79
2021/06/30 06:59:54;;;;;;;27.43;18.10;;;17.10;99.90;;;;;;5081563;28;20222;-78
2021/06/30 07:02:21;;;;;;;28.43;19.07;;;17.20;99.90;;;;;;5078889;28;20250;-78
2021/06/30 07:04:48;;;;;;;27.53;19.07;;;17.40;99.90;;;;;;5083772;28;20286;-79
2021/06/30 07:07:15;;;;;;;30.30;18.93;;;17.60;99.90;;;;;;5072480;28;20679;-79
2021/06/30 07:09:42;;;;;;;25.33;17.93;;;17.70;99.90;;;;;;5081189;28;20225;-78
2021/06/30 07:12:09;;;;;;;24.67;17.63;;;17.90;99.90;;;;;;5081722;28;20222;-78
2021/06/30 07:14:36;;;;;;;22.13;16.90;;;18.00;99.90;;;;;;5073157;28;20233;-78
2021/06/30 07:17:05;;;;;;;21.43;15.57;;;18.20;99.90;;;;;;5077789;28;20739;-78
2021/06/30 07:19:32;;;;;;;23.75;17.63;;;18.40;99.90;;;;;;5077732;28;20215;-78
2021/06/30 07:21:59;;;;;;;24.17;18.10;;;18.30;99.90;;;;;;5085165;28;20222;-78
2021/06/30 07:24:26;;;;;;;25.35;17.63;;;18.20;99.90;;;;;;5071969;28;20282;-78
2021/06/30 07:26:53;;;;;;;24.40;17.48;;;18.10;99.90;;;;;;5083960;28;20227;-78
2021/06/30 07:29:20;;;;;;;27.02;18.33;;;17.90;99.90;;;;;;5078984;28;20282;-78
2021/06/30 07:31:47;;;;;;;25.00;17.55;;;18.00;99.90;;;;;;5076342;28;20227;-78
2021/06/30 07:34:15;;;;;;;26.95;18.85;;;17.80;99.90;;;;;;5077079;28;20282;-78
2021/06/30 07:36:42;;;;;;;26.25;17.83;;;17.80;99.90;;;;;;5079874;28;20215;-79
2021/06/30 07:39:09;;;;;;;26.27;18.73;;;17.80;99.90;;;;;;5076315;28;20329;-79
2021/06/30 07:41:36;;;;;;;28.52;19.05;;;17.90;99.90;;;;;;5091981;28;20226;-78
2021/06/30 07:44:04;;;;;;;26.92;19.35;;;18.30;99.90;;;;;;5090852;28;20237;-79
2021/06/30 07:46:31;;;;;;;26.65;18.00;;;18.30;99.90;;;;;;5086779;28;20207;-79
2021/06/30 07:48:58;;;;;;;25.25;18.00;;;18.50;99.90;;;;;;5078743;28;20203;-78
2021/06/30 07:51:27;;;;;;;23.83;18.25;;;18.60;99.90;;;;;;5081644;28;20263;-78
2021/06/30 07:53:54;;;;;;;23.98;17.65;;;18.30;99.90;;;;;;5083499;28;20195;-78
2021/06/30 07:56:33;;;;;;;27.20;18.65;;;18.40;99.90;;;;;;5084400;28;20226;-78
2021/06/30 07:59:00;;;;;;;27.63;19.27;;;18.40;99.90;;;;;;5088799;28;20937;-79
2021/06/30 08:01:27;;;;;;;25.77;18.08;;;18.30;99.90;;;;;;5086157;28;20277;-78
2021/06/30 08:03:54;;;;;;;25.30;19.08;;;18.40;99.90;;;;;;5085015;28;20225;-78
2021/06/30 08:06:21;;;;;;;25.20;18.90;;;18.40;99.90;;;;;;5080932;28;20231;-78
2021/06/30 08:08:49;;;;;;;24.63;17.52;;;18.50;99.90;;;;;;5084375;28;20227;-78
2021/06/30 08:11:17;;;;;;;22.27;17.58;;;18.60;99.90;;;;;;5080593;28;20254;-78
2021/06/30 08:13:44;;;;;;;24.45;17.70;;;18.60;99.90;;;;;;5087231;28;20202;-78
2021/06/30 08:16:20;;;;;;;23.80;17.23;;;18.90;99.90;;;;;;5076443;28;20293;-78
2021/06/30 08:18:48;;;;;;;22.83;17.75;;;19.00;99.90;;;;;;5074299;28;20241;-78
2021/06/30 08:21:16;;;;;;;21.75;18.13;;;18.90;99.90;;;;;;5083415;28;20785;-78
2021/06/30 08:23:44;;;;;;;24.45;17.58;;;19.00;99.90;;;;;;5076758;28;20292;-79
2021/06/30 08:26:12;;;;;;;23.02;17.20;;;19.20;99.90;;;;;;5078263;28;20670;-78
2021/06/30 08:28:39;;;;;;;22.13;17.08;;;19.20;99.90;;;;;;5081110;28;20207;-79
2021/06/30 08:31:07;;;;;;;20.35;16.40;;;19.10;99.90;;;;;;5084645;28;20724;-78
2021/06/30 08:33:34;;;;;;;23.25;17.30;;;19.20;99.90;;;;;;5080871;28;20606;-79
2021/06/30 08:36:01;;;;;;;23.33;17.15;;;19.10;99.90;;;;;;5075896;28;20302;-79
2021/06/30 08:38:28;;;;;;;24.08;17.45;;;19.70;99.90;;;;;;5071300;28;20738;-78
2021/06/30 08:40:56;;;;;;;22.85;17.38;;;19.80;99.90;;;;;;5078189;28;20305;-78
2021/06/30 08:43:24;;;;;;;22.02;16.27;;;19.70;99.90;;;;;;5080882;28;20283;-79
2021/06/30 08:45:51;;;;;;;19.10;15.60;;;20.00;99.90;;;;;;5078700;28;20230;-78
2021/06/30 08:48:20;;;;;;;19.20;15.40;;;20.40;99.90;;;;;;5079300;28;20218;-79
2021/06/30 08:50:48;;;;;;;21.08;16.10;;;20.70;99.90;;;;;;5082881;28;20507;-79
2021/06/30 08:53:16;;;;;;;16.48;13.60;;;21.00;99.90;;;;;;5072452;28;20202;-79
2021/06/30 08:55:44;;;;;;;15.32;11.85;;;21.80;99.90;;;;;;5075351;28;20202;-79
2021/06/30 08:58:12;;;;;;;17.33;12.90;;;22.20;99.90;;;;;;5075837;28;20205;-79
2021/06/30 09:00:42;;;;;;;16.00;11.98;;;21.90;99.90;;;;;;5073524;28;20236;-79
2021/06/30 09:03:14;;;;;;;15.85;11.95;;;21.60;99.90;;;;;;5075329;28;20226;-79
2021/06/30 09:06:11;;;;;;;15.00;12.52;;;21.70;99.90;;;;;;5079300;28;20282;-78
2021/06/30 09:09:02;;;;;;;14.68;11.65;;;21.00;99.90;;;;;;5081635;28;20559;-78
2021/06/30 09:11:31;;;;;;;14.43;11.77;;;21.20;99.90;;;;;;5080432;28;20628;-78
2021/06/30 09:14:18;;;;;;;14.70;11.88;;;21.00;99.90;;;;;;5073551;28;20983;-79
2021/06/30 09:17:04;;;;;;;13.02;10.40;;;21.10;99.90;;;;;;5075358;28;20206;-79
2021/06/30 09:19:56;;;;;;;12.93;10.63;;;21.40;99.90;;;;;;5073119;28;20195;-78
2021/06/30 09:22:38;;;;;;;11.88;9.85;;;21.40;99.90;;;;;;5075496;28;20233;-79
2021/06/30 09:25:05;;;;;;;11.85;10.02;;;21.50;99.90;;;;;;5072381;28;20289;-78
2021/06/30 09:27:41;;;;;;;12.77;10.32;;;21.60;99.90;;;;;;5084149;28;20251;-79
2021/06/30 09:30:11;;;;;;;12.55;10.15;;;21.50;99.90;;;;;;5075915;28;20249;-79
2021/06/30 09:33:03;;;;;;;14.48;11.43;;;22.20;99.90;;;;;;5079061;28;20751;-79
2021/06/30 09:35:32;;;;;;;12.82;10.63;;;22.00;99.90;;;;;;5079315;28;20227;-79
2021/06/30 09:38:00;;;;;;;11.73;10.20;;;21.60;99.90;;;;;;5081718;28;20739;-80
2021/06/30 09:40:45;;;;;;;12.43;9.93;;;22.10;99.90;;;;;;5073996;28;20287;-80
2021/06/30 09:43:29;;;;;;;12.38;10.25;;;21.80;99.90;;;;;;5072980;28;20218;-80
2021/06/30 09:45:58;;;;;;;12.52;9.75;;;21.80;99.90;;;;;;5076725;28;20242;-80
2021/06/30 09:48:32;;;;;;;11.82;9.55;;;21.80;99.90;;;;;;5078519;28;20721;-80
2021/06/30 09:51:01;;;;;;;10.18;8.65;;;21.60;99.90;;;;;;5079695;28;20291;-80
2021/06/30 09:53:38;;;;;;;12.32;9.77;;;21.70;99.90;;;;;;5087840;28;20276;-80
2021/06/30 09:56:10;;;;;;;12.98;10.95;;;21.70;99.90;;;;;;5086795;28;21117;-79
2021/06/30 09:58:37;;;;;;;12.57;9.27;;;21.50;99.90;;;;;;5081468;28;20282;-79
2021/06/30 10:01:18;;;;;;;14.93;10.57;;;22.10;99.90;;;;;;5076068;28;20249;-80
2021/06/30 10:03:47;;;;;;;12.07;10.48;;;22.40;99.90;;;;;;5080031;28;20253;-80
2021/06/30 10:06:30;;;;;;;14.40;10.50;;;22.60;99.90;;;;;;5083419;28;20256;-80
2021/06/30 10:08:58;;;;;;;12.07;10.27;;;22.50;99.90;;;;;;5078557;28;20256;-80
2021/06/30 10:11:26;;;;;;;12.10;9.40;;;23.10;99.90;;;;;;5071846;28;20244;-79
2021/06/30 10:13:53;;;;;;;12.85;9.25;;;23.40;99.90;;;;;;5082900;28;20202;-79
2021/06/30 10:16:21;;;;;;;12.88;10.65;;;23.30;99.90;;;;;;5077828;28;20223;-79
2021/06/30 10:18:52;;;;;;;13.10;9.98;;;22.80;99.90;;;;;;5076390;28;20202;-79
2021/06/30 10:21:21;;;;;;;12.70;9.65;;;22.20;99.90;;;;;;5082319;28;20267;-80
2021/06/30 10:23:50;;;;;;;15.18;11.18;;;22.20;99.90;;;;;;5073134;28;20265;-79
2021/06/30 10:26:19;;;;;;;15.13;10.63;;;21.70;99.90;;;;;;5078467;28;20196;-78
2021/06/30 10:28:50;;;;;;;14.27;11.15;;;21.60;99.90;;;;;;5078181;28;20195;-79
2021/06/30 10:31:17;;;;;;;16.40;11.20;;;21.40;99.90;;;;;;5076191;28;20199;-79
2021/06/30 10:33:56;;;;;;;14.32;10.88;;;21.50;99.90;;;;;;5082267;28;20282;-78
2021/06/30 10:36:43;;;;;;;14.88;11.30;;;22.00;99.90;;;;;;5064792;28;20282;-78
2021/06/30 10:39:10;;;;;;;16.08;11.80;;;21.90;99.90;;;;;;5070754;28;20211;-79
2021/06/30 10:41:40;;;;;;;15.07;11.60;;;21.70;99.90;;;;;;5077227;28;20357;-79
2021/06/30 10:44:15;;;;;;;17.45;12.05;;;21.70;99.90;;;;;;5090783;28;20240;-79
2021/06/30 10:46:43;;;;;;;14.77;11.45;;;21.80;99.90;;;;;;5081627;28;20685;-79
2021/06/30 10:49:22;;;;;;;16.35;12.65;;;22.70;99.90;;;;;;5082568;28;20195;-79
2021/06/30 10:51:51;;;;;;;16.58;11.93;;;22.80;99.90;;;;;;5083053;28;20259;-79
2021/06/30 10:54:37;;;;;;;16.27;12.00;;;23.10;99.90;;;;;;5081652;28;20240;-78
2021/06/30 10:57:24;;;;;;;15.63;12.60;;;22.80;99.90;;;;;;5071162;28;20271;-79
2021/06/30 11:00:14;;;;;;;16.92;12.43;;;23.00;99.90;;;;;;5082002;28;20682;-79
2021/06/30 11:02:41;;;;;;;14.80;12.07;;;23.10;99.90;;;;;;5076459;28;20682;-79
2021/06/30 11:05:34;;;;;;;14.02;11.27;;;23.40;99.90;;;;;;5075725;28;20199;-79
2021/06/30 11:08:03;;;;;;;14.70;11.77;;;23.60;99.90;;;;;;5074767;28;20203;-80
2021/06/30 11:10:51;;;;;;;18.63;13.32;;;23.70;99.90;;;;;;5079893;28;20195;-79
2021/06/30 11:13:56;;;;;;;15.65;12.43;;;24.10;99.90;;;;;;5083378;28;20281;-79
2021/06/30 11:16:49;;;;;;;16.10;12.43;;;23.80;99.90;;;;;;5079402;28;20225;-79
2021/06/30 11:19:39;;;;;;;14.52;11.45;;;22.90;99.90;;;;;;5084946;28;20194;-80
2021/06/30 11:22:08;;;;;;;15.90;12.25;;;22.40;99.90;;;;;;5085163;28;20306;-79
2021/06/30 11:24:49;;;;;;;15.23;12.55;;;22.20;99.90;;;;;;5080729;28;20223;-80
2021/06/30 11:27:48;;;;;;;16.63;11.88;;;22.00;99.90;;;;;;5085773;28;20210;-79
2021/06/30 11:30:34;;;;;;;13.50;11.18;;;21.60;99.90;;;;;;5074525;28;20661;-80
2021/06/30 11:33:01;;;;;;;14.95;12.85;;;21.50;99.90;;;;;;5067945;28;20674;-78
2021/06/30 11:35:37;;;;;;;15.98;12.48;;;21.10;99.90;;;;;;5079552;28;20285;-79
2021/06/30 11:38:14;;;;;;;16.23;12.52;;;20.80;99.90;;;;;;5071647;28;20237;-79
2021/06/30 11:40:50;;;;;;;19.42;13.70;;;20.80;99.90;;;;;;5076207;28;20976;-79
2021/06/30 11:43:21;;;;;;;19.35;13.40;;;20.30;99.90;;;;;;5082182;28;20229;-79
2021/06/30 11:45:48;;;;;;;19.33;14.80;;;19.90;99.90;;;;;;5083887;28;20285;-79
2021/06/30 11:48:16;;;;;;;23.75;16.20;;;19.40;99.90;;;;;;5080848;28;20745;-79
2021/06/30 11:50:53;;;;;;;24.90;16.58;;;18.90;99.90;;;;;;5080116;28;20354;-78
2021/06/30 11:53:38;;;;;;;24.80;16.92;;;18.60;99.90;;;;;;5108075;27;20614;-79
2021/06/30 11:56:08;;;;;;;25.65;17.17;;;18.40;99.90;;;;;;5076784;28;20676;-79
2021/06/30 11:58:43;;;;;;;26.50;18.13;;;18.30;99.90;;;;;;5076380;28;20350;-79
2021/06/30 12:01:18;;;;;;;25.30;18.48;;;18.20;99.90;;;;;;5079626;28;20630;-79
2021/06/30 12:03:45;;;;;;;27.88;17.70;;;18.20;99.90;;;;;;5084150;28;20213;-79
2021/06/30 12:06:23;;;;;;;26.83;18.77;;;18.20;99.90;;;;;;5113276;27;20253;-79
2021/06/30 12:09:05;;;;;;;27.05;17.92;;;18.30;99.90;;;;;;5081673;28;20198;-79
2021/06/30 12:11:34;;;;;;;29.08;17.90;;;18.40;99.90;;;;;;5083586;28;20285;-79
2021/06/30 12:14:10;;;;;;;27.17;19.45;;;18.40;99.90;;;;;;5081916;28;20339;-78
2021/06/30 12:16:45;;;;;;;25.67;18.50;;;18.50;99.90;;;;;;5089624;28;20230;-78
2021/06/30 12:19:14;;;;;;;28.33;18.98;;;18.70;99.90;;;;;;5091211;28;20777;-79
2021/06/30 12:21:41;;;;;;;25.85;18.27;;;18.80;99.90;;;;;;5085549;28;20222;-79
2021/06/30 12:24:20;;;;;;;27.25;18.17;;;18.80;99.90;;;;;;5076785;28;20721;-79
2021/06/30 12:27:10;;;;;;;25.75;17.88;;;18.90;99.90;;;;;;5085811;28;20293;-78
2021/06/30 12:29:39;;;;;;;23.35;16.42;;;19.00;99.90;;;;;;4720925;28;10000447;-79
2021/06/30 12:32:10;;;;;;;25.17;17.85;;;19.20;99.90;;;;;;5080586;28;20256;-79
2021/06/30 12:34:37;;;;;;;23.67;16.20;;;19.40;99.90;;;;;;5076706;28;20194;-78
2021/06/30 12:37:05;;;;;;;22.98;15.40;;;19.60;99.90;;;;;;5081956;28;20278;-79
2021/06/30 12:39:33;;;;;;;19.63;13.77;;;19.70;99.90;;;;;;5074673;28;20885;-79
2021/06/30 12:45:53;;;;;;;13.25;9.73;;;20.10;99.90;;;;;;5073762;28;20788;-79